High Beam — 3FWP2 — position and weather

sailwx.info

Track history (hours):
 
Tides and Currents Weather Stations Pressure Air Temp Water Temp Dewpoint Dewpoint Depression Visibility Wind Speed Wind Dir Waves Ship Positions

High Beam

Last reported at 2018-Jun-15 20:04 UTC. Time now 2018-Jun-25 11:29 UTC.
Position N 37°13' E 025°50'.
Warning: this ship's position is 9 days out of date.

Length 180 m; draft 10.2 m.

Type: Ship. MMSI: 354070000.

Date/timePositionNaut miles runAvg speedWind from/ knotsBaromVisibWave heightAir tempDewpointWater temp
2018-Jun-15 20:04N 37°13' E 025°50'113.6
2018-Jun-15 20:00N 37°14' E 025°50'713.7
2018-Jun-15 19:31N 37°21' E 025°49'714.2
2018-Jun-15 19:00N 37°28' E 025°49'913.6
2018-Jun-15 18:22N 37°36' E 025°49'513.2
2018-Jun-15 17:58N 37°41' E 025°48'6512.6
2018-Jun-15 12:47N 38°45' E 025°28'  
2018-Jun-13 02:22N 39°44' E 025°39'514.0
2018-Jun-13 02:00N 39°48' E 025°43'715.1
2018-Jun-13 01:30N 39°54' E 025°49'714.9
2018-Jun-13 01:00N 39°59' E 025°57'914.1
2018-Jun-13 00:21N 40°02' E 026°08'1412.7
2018-Jun-12 23:15N 40°10' E 026°23'2111.6
2018-Jun-12 21:26N 40°25' E 026°42'  
2018-Jun-10 16:13N 40°50' E 028°13'211.9
2018-Jun-10 16:00N 40°49' E 028°16'712.0
2018-Jun-10 15:25N 40°45' E 028°23'614.1
2018-Jun-10 15:00N 40°45' E 028°31'  
2018-Jun-05 22:41N 40°30' E 026°58'314.4
2018-Jun-05 22:28N 40°29' E 026°55'  
Track history (hours):
 
Tides and Currents Weather Stations Pressure Air Temp Water Temp Dewpoint Dewpoint Depression Visibility Wind Speed Wind Dir Waves Ship Positions

High Beam

Last reported at 2018-Jun-15 20:04 UTC. Time now 2018-Jun-25 11:29 UTC.
Position N 37°13' E 025°50'.
Warning: this ship's position is 9 days out of date.

Length 180 m; draft 10.2 m.

Type: Ship. MMSI: 354070000.

Date/timePositionNaut miles runAvg speedWind from/ knotsBaromVisibWave heightAir tempDewpointWater temp
2018-Jun-15 20:04N 37°13' E 025°50'113.6
2018-Jun-15 20:00N 37°14' E 025°50'713.7
2018-Jun-15 19:31N 37°21' E 025°49'714.2
2018-Jun-15 19:00N 37°28' E 025°49'913.6
2018-Jun-15 18:22N 37°36' E 025°49'513.2
2018-Jun-15 17:58N 37°41' E 025°48'6512.6
2018-Jun-15 12:47N 38°45' E 025°28'  
2018-Jun-13 02:22N 39°44' E 025°39'514.0
2018-Jun-13 02:00N 39°48' E 025°43'715.1
2018-Jun-13 01:30N 39°54' E 025°49'714.9
2018-Jun-13 01:00N 39°59' E 025°57'914.1
2018-Jun-13 00:21N 40°02' E 026°08'1412.7
2018-Jun-12 23:15N 40°10' E 026°23'2111.6
2018-Jun-12 21:26N 40°25' E 026°42'  
2018-Jun-10 16:13N 40°50' E 028°13'211.9
2018-Jun-10 16:00N 40°49' E 028°16'712.0
2018-Jun-10 15:25N 40°45' E 028°23'614.1
2018-Jun-10 15:00N 40°45' E 028°31'  
2018-Jun-05 22:41N 40°30' E 026°58'314.4
2018-Jun-05 22:28N 40°29' E 026°55'  

Dump ship's entire track history